sensor_id;sensor_type;location;lat;lon;timestamp;P1;durP1;ratioP1;P2;durP2;ratioP2
20559;SDS011;10438;51.454;6.718;2023-01-16T00:00:00;4.73;;;1.30;;
20559;SDS011;10438;51.454;6.718;2023-01-16T00:02:25;8.13;;;1.40;;
20559;SDS011;10438;51.454;6.718;2023-01-16T00:04:51;7.83;;;1.57;;
20559;SDS011;10438;51.454;6.718;2023-01-16T00:07:16;5.33;;;1.60;;
20559;SDS011;10438;51.454;6.718;2023-01-16T00:09:42;3.17;;;0.97;;
20559;SDS011;10438;51.454;6.718;2023-01-16T00:12:07;5.40;;;1.20;;
20559;SDS011;10438;51.454;6.718;2023-01-16T00:14:33;8.03;;;1.37;;
20559;SDS011;10438;51.454;6.718;2023-01-16T00:16:58;7.53;;;1.40;;
20559;SDS011;10438;51.454;6.718;2023-01-16T00:19:24;5.47;;;1.40;;
20559;SDS011;10438;51.454;6.718;2023-01-16T00:21:49;6.10;;;1.50;;
20559;SDS011;10438;51.454;6.718;2023-01-16T00:24:15;9.40;;;1.97;;
20559;SDS011;10438;51.454;6.718;2023-01-16T00:26:40;7.03;;;1.30;;
20559;SDS011;10438;51.454;6.718;2023-01-16T00:29:06;4.83;;;1.30;;
20559;SDS011;10438;51.454;6.718;2023-01-16T00:31:31;11.70;;;1.60;;
20559;SDS011;10438;51.454;6.718;2023-01-16T00:33:57;10.10;;;1.83;;
20559;SDS011;10438;51.454;6.718;2023-01-16T00:36:22;6.60;;;1.20;;
20559;SDS011;10438;51.454;6.718;2023-01-16T00:38:48;6.03;;;1.60;;
20559;SDS011;10438;51.454;6.718;2023-01-16T00:41:14;8.20;;;1.30;;
20559;SDS011;10438;51.454;6.718;2023-01-16T00:43:39;7.93;;;1.40;;
20559;SDS011;10438;51.454;6.718;2023-01-16T00:46:05;5.87;;;1.13;;
20559;SDS011;10438;51.454;6.718;2023-01-16T00:48:30;6.40;;;1.03;;
20559;SDS011;10438;51.454;6.718;2023-01-16T00:50:56;6.13;;;1.43;;
20559;SDS011;10438;51.454;6.718;2023-01-16T00:53:21;5.17;;;1.30;;
20559;SDS011;10438;51.454;6.718;2023-01-16T00:55:47;7.17;;;1.20;;
20559;SDS011;10438;51.454;6.718;2023-01-16T00:58:15;7.13;;;1.33;;
20559;SDS011;10438;51.454;6.718;2023-01-16T01:00:40;5.50;;;1.17;;
20559;SDS011;10438;51.454;6.718;2023-01-16T01:03:06;5.23;;;1.30;;
20559;SDS011;10438;51.454;6.718;2023-01-16T01:05:34;5.97;;;1.20;;
20559;SDS011;10438;51.454;6.718;2023-01-16T01:08:01;6.03;;;1.53;;
20559;SDS011;10438;51.454;6.718;2023-01-16T01:10:26;4.23;;;1.00;;
20559;SDS011;10438;51.454;6.718;2023-01-16T01:12:55;3.93;;;1.10;;
20559;SDS011;10438;51.454;6.718;2023-01-16T01:15:21;5.57;;;1.10;;
20559;SDS011;10438;51.454;6.718;2023-01-16T01:17:47;6.60;;;1.07;;
20559;SDS011;10438;51.454;6.718;2023-01-16T01:20:13;5.00;;;1.10;;
20559;SDS011;10438;51.454;6.718;2023-01-16T01:22:39;6.57;;;1.37;;
20559;SDS011;10438;51.454;6.718;2023-01-16T01:25:04;4.90;;;0.90;;
20559;SDS011;10438;51.454;6.718;2023-01-16T01:27:30;3.20;;;0.90;;
20559;SDS011;10438;51.454;6.718;2023-01-16T01:29:56;6.13;;;1.20;;
20559;SDS011;10438;51.454;6.718;2023-01-16T01:32:21;5.10;;;0.93;;
20559;SDS011;10438;51.454;6.718;2023-01-16T01:34:47;5.97;;;1.10;;
20559;SDS011;10438;51.454;6.718;2023-01-16T01:37:12;4.67;;;1.20;;
20559;SDS011;10438;51.454;6.718;2023-01-16T01:39:38;7.83;;;1.07;;
20559;SDS011;10438;51.454;6.718;2023-01-16T01:42:03;4.77;;;1.27;;
20559;SDS011;10438;51.454;6.718;2023-01-16T01:44:55;11.90;;;1.63;;
20559;SDS011;10438;51.454;6.718;2023-01-16T01:47:52;6.23;;;1.17;;
20559;SDS011;10438;51.454;6.718;2023-01-16T01:55:54;9.47;;;1.03;;
20559;SDS011;10438;51.454;6.718;2023-01-16T01:58:24;6.30;;;1.23;;
20559;SDS011;10438;51.454;6.718;2023-01-16T02:00:53;10.30;;;1.30;;
20559;SDS011;10438;51.454;6.718;2023-01-16T02:03:30;5.43;;;1.10;;
20559;SDS011;10438;51.454;6.718;2023-01-16T02:06:02;4.37;;;1.10;;
20559;SDS011;10438;51.454;6.718;2023-01-16T02:08:32;9.37;;;1.33;;
20559;SDS011;10438;51.454;6.718;2023-01-16T02:11:12;3.30;;;0.97;;
20559;SDS011;10438;51.454;6.718;2023-01-16T02:13:51;5.73;;;1.27;;
20559;SDS011;10438;51.454;6.718;2023-01-16T02:16:23;4.90;;;0.97;;
20559;SDS011;10438;51.454;6.718;2023-01-16T02:31:07;6.40;;;1.33;;
20559;SDS011;10438;51.454;6.718;2023-01-16T02:42:24;4.10;;;1.30;;
20559;SDS011;10438;51.454;6.718;2023-01-16T02:45:18;5.33;;;0.90;;
20559;SDS011;10438;51.454;6.718;2023-01-16T02:53:38;6.27;;;1.00;;
20559;SDS011;10438;51.454;6.718;2023-01-16T02:56:15;5.57;;;1.00;;
20559;SDS011;10438;51.454;6.718;2023-01-16T02:58:45;6.30;;;1.30;;
20559;SDS011;10438;51.454;6.718;2023-01-16T03:01:13;6.57;;;1.30;;
20559;SDS011;10438;51.454;6.718;2023-01-16T03:03:43;4.27;;;1.17;;
20559;SDS011;10438;51.454;6.718;2023-01-16T03:06:36;7.73;;;2.00;;
20559;SDS011;10438;51.454;6.718;2023-01-16T03:11:47;7.70;;;2.07;;
20559;SDS011;10438;51.454;6.718;2023-01-16T03:14:51;12.40;;;1.97;;
20559;SDS011;10438;51.454;6.718;2023-01-16T03:17:58;5.93;;;1.97;;
20559;SDS011;10438;51.454;6.718;2023-01-16T03:23:40;10.20;;;2.63;;
20559;SDS011;10438;51.454;6.718;2023-01-16T03:26:25;9.47;;;2.43;;
20559;SDS011;10438;51.454;6.718;2023-01-16T03:31:57;5.83;;;1.27;;
20559;SDS011;10438;51.454;6.718;2023-01-16T03:34:43;7.13;;;1.00;;
20559;SDS011;10438;51.454;6.718;2023-01-16T03:37:22;4.13;;;0.97;;
20559;SDS011;10438;51.454;6.718;2023-01-16T03:39:56;4.03;;;0.90;;
20559;SDS011;10438;51.454;6.718;2023-01-16T03:42:28;4.10;;;1.00;;
20559;SDS011;10438;51.454;6.718;2023-01-16T03:45:00;2.60;;;0.93;;
20559;SDS011;10438;51.454;6.718;2023-01-16T03:47:31;3.10;;;0.87;;
20559;SDS011;10438;51.454;6.718;2023-01-16T03:50:04;5.57;;;1.03;;
20559;SDS011;10438;51.454;6.718;2023-01-16T03:52:44;4.57;;;0.83;;
20559;SDS011;10438;51.454;6.718;2023-01-16T03:55:17;3.13;;;0.73;;
20559;SDS011;10438;51.454;6.718;2023-01-16T03:57:52;4.10;;;0.90;;
20559;SDS011;10438;51.454;6.718;2023-01-16T04:00:25;2.57;;;0.83;;
20559;SDS011;10438;51.454;6.718;2023-01-16T04:03:07;5.50;;;0.80;;
20559;SDS011;10438;51.454;6.718;2023-01-16T04:06:09;3.10;;;0.60;;
20559;SDS011;10438;51.454;6.718;2023-01-16T04:08:37;4.40;;;0.70;;
20559;SDS011;10438;51.454;6.718;2023-01-16T04:11:05;2.80;;;0.73;;
20559;SDS011;10438;51.454;6.718;2023-01-16T04:13:33;1.97;;;0.50;;
20559;SDS011;10438;51.454;6.718;2023-01-16T04:16:02;2.17;;;0.80;;
20559;SDS011;10438;51.454;6.718;2023-01-16T04:18:31;2.83;;;0.63;;
20559;SDS011;10438;51.454;6.718;2023-01-16T04:20:59;1.70;;;0.50;;
20559;SDS011;10438;51.454;6.718;2023-01-16T04:23:25;2.43;;;0.50;;
20559;SDS011;10438;51.454;6.718;2023-01-16T04:25:50;3.90;;;0.80;;
20559;SDS011;10438;51.454;6.718;2023-01-16T04:28:16;9.37;;;2.50;;
20559;SDS011;10438;51.454;6.718;2023-01-16T04:30:42;12.27;;;3.60;;
20559;SDS011;10438;51.454;6.718;2023-01-16T04:33:07;4.93;;;1.90;;
20559;SDS011;10438;51.454;6.718;2023-01-16T04:35:33;10.40;;;2.67;;
20559;SDS011;10438;51.454;6.718;2023-01-16T04:37:59;15.60;;;4.00;;
20559;SDS011;10438;51.454;6.718;2023-01-16T04:40:25;13.63;;;4.30;;
20559;SDS011;10438;51.454;6.718;2023-01-16T04:42:50;22.40;;;5.60;;
20559;SDS011;10438;51.454;6.718;2023-01-16T04:45:16;25.53;;;4.90;;
20559;SDS011;10438;51.454;6.718;2023-01-16T04:47:45;19.03;;;5.53;;
20559;SDS011;10438;51.454;6.718;2023-01-16T04:50:12;15.23;;;3.97;;
20559;SDS011;10438;51.454;6.718;2023-01-16T04:52:37;7.43;;;2.80;;
20559;SDS011;10438;51.454;6.718;2023-01-16T04:55:03;8.37;;;2.63;;
20559;SDS011;10438;51.454;6.718;2023-01-16T04:57:29;8.53;;;3.03;;
20559;SDS011;10438;51.454;6.718;2023-01-16T04:59:54;15.47;;;4.53;;
20559;SDS011;10438;51.454;6.718;2023-01-16T05:02:20;14.63;;;4.87;;
20559;SDS011;10438;51.454;6.718;2023-01-16T05:04:45;13.20;;;4.03;;
20559;SDS011;10438;51.454;6.718;2023-01-16T05:07:11;20.60;;;6.47;;
20559;SDS011;10438;51.454;6.718;2023-01-16T05:09:36;15.63;;;3.30;;
20559;SDS011;10438;51.454;6.718;2023-01-16T05:12:02;7.00;;;1.60;;
20559;SDS011;10438;51.454;6.718;2023-01-16T05:14:27;5.50;;;1.20;;
20559;SDS011;10438;51.454;6.718;2023-01-16T05:16:53;5.03;;;0.90;;
20559;SDS011;10438;51.454;6.718;2023-01-16T05:19:19;1.73;;;0.50;;
20559;SDS011;10438;51.454;6.718;2023-01-16T05:21:44;2.80;;;0.60;;
20559;SDS011;10438;51.454;6.718;2023-01-16T05:24:10;1.67;;;0.50;;
20559;SDS011;10438;51.454;6.718;2023-01-16T05:26:35;4.30;;;0.70;;
20559;SDS011;10438;51.454;6.718;2023-01-16T05:29:01;4.07;;;0.73;;
20559;SDS011;10438;51.454;6.718;2023-01-16T05:31:26;3.17;;;0.77;;
20559;SDS011;10438;51.454;6.718;2023-01-16T05:33:52;2.50;;;0.80;;
20559;SDS011;10438;51.454;6.718;2023-01-16T05:36:18;4.27;;;0.80;;
20559;SDS011;10438;51.454;6.718;2023-01-16T05:38:43;3.77;;;0.90;;
20559;SDS011;10438;51.454;6.718;2023-01-16T05:41:09;4.17;;;0.90;;
20559;SDS011;10438;51.454;6.718;2023-01-16T05:43:34;3.40;;;0.87;;
20559;SDS011;10438;51.454;6.718;2023-01-16T05:46:00;6.77;;;1.30;;
20559;SDS011;10438;51.454;6.718;2023-01-16T05:48:28;4.67;;;0.87;;
20559;SDS011;10438;51.454;6.718;2023-01-16T05:50:55;4.63;;;0.83;;
20559;SDS011;10438;51.454;6.718;2023-01-16T05:53:20;4.40;;;0.70;;
20559;SDS011;10438;51.454;6.718;2023-01-16T05:55:46;5.50;;;1.00;;
20559;SDS011;10438;51.454;6.718;2023-01-16T05:58:13;6.07;;;1.00;;
20559;SDS011;10438;51.454;6.718;2023-01-16T06:00:40;4.67;;;0.83;;
20559;SDS011;10438;51.454;6.718;2023-01-16T06:03:06;4.83;;;1.10;;
20559;SDS011;10438;51.454;6.718;2023-01-16T06:05:32;3.63;;;1.10;;
20559;SDS011;10438;51.454;6.718;2023-01-16T06:07:58;5.73;;;1.00;;
20559;SDS011;10438;51.454;6.718;2023-01-16T06:10:24;4.37;;;0.90;;
20559;SDS011;10438;51.454;6.718;2023-01-16T06:12:50;5.03;;;1.03;;
20559;SDS011;10438;51.454;6.718;2023-01-16T06:15:16;9.87;;;0.90;;
20559;SDS011;10438;51.454;6.718;2023-01-16T06:17:42;5.10;;;1.00;;
20559;SDS011;10438;51.454;6.718;2023-01-16T06:20:08;7.27;;;1.20;;
20559;SDS011;10438;51.454;6.718;2023-01-16T06:22:35;2.50;;;0.70;;
20559;SDS011;10438;51.454;6.718;2023-01-16T06:25:00;4.03;;;0.67;;
20559;SDS011;10438;51.454;6.718;2023-01-16T06:27:26;6.53;;;1.37;;
20559;SDS011;10438;51.454;6.718;2023-01-16T06:29:51;3.97;;;1.00;;
20559;SDS011;10438;51.454;6.718;2023-01-16T06:32:17;4.10;;;0.73;;
20559;SDS011;10438;51.454;6.718;2023-01-16T06:34:43;5.40;;;0.90;;
20559;SDS011;10438;51.454;6.718;2023-01-16T06:37:09;4.10;;;0.70;;
20559;SDS011;10438;51.454;6.718;2023-01-16T06:39:35;3.83;;;0.70;;
20559;SDS011;10438;51.454;6.718;2023-01-16T06:42:01;3.30;;;0.80;;
20559;SDS011;10438;51.454;6.718;2023-01-16T06:44:29;6.13;;;1.43;;
20559;SDS011;10438;51.454;6.718;2023-01-16T06:46:58;7.57;;;1.17;;
20559;SDS011;10438;51.454;6.718;2023-01-16T06:49:24;6.00;;;1.00;;
20559;SDS011;10438;51.454;6.718;2023-01-16T06:51:50;4.30;;;0.60;;
20559;SDS011;10438;51.454;6.718;2023-01-16T06:54:15;3.17;;;0.70;;
20559;SDS011;10438;51.454;6.718;2023-01-16T06:56:41;9.27;;;0.77;;
20559;SDS011;10438;51.454;6.718;2023-01-16T06:59:06;3.20;;;0.67;;
20559;SDS011;10438;51.454;6.718;2023-01-16T07:01:32;2.93;;;0.67;;
20559;SDS011;10438;51.454;6.718;2023-01-16T07:03:57;2.77;;;0.80;;
20559;SDS011;10438;51.454;6.718;2023-01-16T07:06:23;2.87;;;0.90;;
20559;SDS011;10438;51.454;6.718;2023-01-16T07:08:48;3.93;;;0.90;;
20559;SDS011;10438;51.454;6.718;2023-01-16T07:11:15;1.87;;;0.70;;
20559;SDS011;10438;51.454;6.718;2023-01-16T07:13:41;7.50;;;1.03;;
20559;SDS011;10438;51.454;6.718;2023-01-16T07:16:08;6.03;;;1.20;;
20559;SDS011;10438;51.454;6.718;2023-01-16T07:18:54;3.97;;;0.93;;
20559;SDS011;10438;51.454;6.718;2023-01-16T07:21:38;5.73;;;0.97;;
20559;SDS011;10438;51.454;6.718;2023-01-16T07:24:26;3.80;;;0.80;;
20559;SDS011;10438;51.454;6.718;2023-01-16T07:26:55;5.30;;;1.00;;
20559;SDS011;10438;51.454;6.718;2023-01-16T07:29:23;3.83;;;1.00;;
20559;SDS011;10438;51.454;6.718;2023-01-16T07:31:49;4.87;;;1.00;;
20559;SDS011;10438;51.454;6.718;2023-01-16T07:34:15;7.20;;;1.97;;
20559;SDS011;10438;51.454;6.718;2023-01-16T07:36:40;2.50;;;0.77;;
20559;SDS011;10438;51.454;6.718;2023-01-16T07:39:06;3.50;;;0.80;;
20559;SDS011;10438;51.454;6.718;2023-01-16T07:41:32;4.23;;;0.70;;
20559;SDS011;10438;51.454;6.718;2023-01-16T07:43:57;5.17;;;0.77;;
20559;SDS011;10438;51.454;6.718;2023-01-16T07:46:23;5.47;;;0.80;;
20559;SDS011;10438;51.454;6.718;2023-01-16T07:48:48;5.33;;;0.73;;
20559;SDS011;10438;51.454;6.718;2023-01-16T07:51:16;4.00;;;1.13;;
20559;SDS011;10438;51.454;6.718;2023-01-16T07:53:42;3.70;;;0.83;;
20559;SDS011;10438;51.454;6.718;2023-01-16T07:56:07;2.83;;;1.23;;
20559;SDS011;10438;51.454;6.718;2023-01-16T07:58:33;6.70;;;1.20;;
20559;SDS011;10438;51.454;6.718;2023-01-16T08:00:58;2.43;;;0.87;;
20559;SDS011;10438;51.454;6.718;2023-01-16T08:03:24;5.43;;;1.30;;
20559;SDS011;10438;51.454;6.718;2023-01-16T08:05:54;4.13;;;1.27;;
20559;SDS011;10438;51.454;6.718;2023-01-16T08:08:21;6.33;;;1.30;;
20559;SDS011;10438;51.454;6.718;2023-01-16T08:10:46;4.50;;;1.27;;
20559;SDS011;10438;51.454;6.718;2023-01-16T08:13:12;5.93;;;1.40;;
20559;SDS011;10438;51.454;6.718;2023-01-16T08:15:37;7.00;;;1.20;;
20559;SDS011;10438;51.454;6.718;2023-01-16T08:18:03;4.30;;;1.50;;
20559;SDS011;10438;51.454;6.718;2023-01-16T08:20:28;5.00;;;1.33;;
20559;SDS011;10438;51.454;6.718;2023-01-16T08:22:54;9.23;;;1.50;;
20559;SDS011;10438;51.454;6.718;2023-01-16T08:25:22;4.30;;;1.30;;
20559;SDS011;10438;51.454;6.718;2023-01-16T08:27:48;4.07;;;1.50;;
20559;SDS011;10438;51.454;6.718;2023-01-16T08:30:15;5.83;;;1.20;;
20559;SDS011;10438;51.454;6.718;2023-01-16T08:32:41;4.97;;;1.10;;
20559;SDS011;10438;51.454;6.718;2023-01-16T08:35:07;4.53;;;1.10;;
20559;SDS011;10438;51.454;6.718;2023-01-16T08:37:33;5.63;;;1.53;;
20559;SDS011;10438;51.454;6.718;2023-01-16T08:39:59;6.37;;;1.23;;
20559;SDS011;10438;51.454;6.718;2023-01-16T08:42:25;10.50;;;2.53;;
20559;SDS011;10438;51.454;6.718;2023-01-16T08:45:09;8.93;;;2.53;;
20559;SDS011;10438;51.454;6.718;2023-01-16T08:47:54;9.70;;;1.97;;
20559;SDS011;10438;51.454;6.718;2023-01-16T08:50:39;8.20;;;2.00;;
20559;SDS011;10438;51.454;6.718;2023-01-16T08:53:23;11.50;;;2.30;;
20559;SDS011;10438;51.454;6.718;2023-01-16T08:55:49;6.27;;;1.50;;
20559;SDS011;10438;51.454;6.718;2023-01-16T08:58:15;3.33;;;1.00;;
20559;SDS011;10438;51.454;6.718;2023-01-16T09:00:40;8.43;;;1.60;;
20559;SDS011;10438;51.454;6.718;2023-01-16T09:03:06;4.07;;;1.20;;
20559;SDS011;10438;51.454;6.718;2023-01-16T09:05:32;5.30;;;1.30;;
20559;SDS011;10438;51.454;6.718;2023-01-16T09:07:57;4.80;;;1.57;;
20559;SDS011;10438;51.454;6.718;2023-01-16T09:10:23;4.80;;;1.60;;
20559;SDS011;10438;51.454;6.718;2023-01-16T09:12:49;5.40;;;1.33;;
20559;SDS011;10438;51.454;6.718;2023-01-16T09:15:33;8.10;;;2.23;;
20559;SDS011;10438;51.454;6.718;2023-01-16T09:17:59;9.60;;;1.90;;
20559;SDS011;10438;51.454;6.718;2023-01-16T09:20:25;7.83;;;1.50;;
20559;SDS011;10438;51.454;6.718;2023-01-16T09:22:56;4.87;;;0.97;;
20559;SDS011;10438;51.454;6.718;2023-01-16T09:25:23;5.67;;;0.80;;
20559;SDS011;10438;51.454;6.718;2023-01-16T09:27:48;8.23;;;1.33;;
20559;SDS011;10438;51.454;6.718;2023-01-16T09:30:14;3.83;;;0.87;;
20559;SDS011;10438;51.454;6.718;2023-01-16T09:32:39;3.97;;;0.97;;
20559;SDS011;10438;51.454;6.718;2023-01-16T09:35:05;6.63;;;1.33;;
20559;SDS011;10438;51.454;6.718;2023-01-16T09:37:31;3.93;;;0.80;;
20559;SDS011;10438;51.454;6.718;2023-01-16T09:39:56;4.47;;;1.50;;
20559;SDS011;10438;51.454;6.718;2023-01-16T09:45:13;2.10;;;0.50;;
20559;SDS011;10438;51.454;6.718;2023-01-16T09:47:42;7.13;;;1.33;;
20559;SDS011;10438;51.454;6.718;2023-01-16T09:50:15;4.80;;;1.50;;
20559;SDS011;10438;51.454;6.718;2023-01-16T09:52:53;4.30;;;1.00;;
20559;SDS011;10438;51.454;6.718;2023-01-16T09:55:41;4.27;;;1.17;;
20559;SDS011;10438;51.454;6.718;2023-01-16T09:58:28;4.43;;;0.97;;
20559;SDS011;10438;51.454;6.718;2023-01-16T10:01:12;2.03;;;0.63;;
20559;SDS011;10438;51.454;6.718;2023-01-16T10:03:41;4.20;;;0.70;;
20559;SDS011;10438;51.454;6.718;2023-01-16T10:09:05;2.77;;;0.73;;
20559;SDS011;10438;51.454;6.718;2023-01-16T10:11:57;2.43;;;0.60;;
20559;SDS011;10438;51.454;6.718;2023-01-16T10:14:46;2.50;;;0.50;;
20559;SDS011;10438;51.454;6.718;2023-01-16T10:17:39;2.37;;;0.67;;
20559;SDS011;10438;51.454;6.718;2023-01-16T10:23:01;4.27;;;0.70;;
20559;SDS011;10438;51.454;6.718;2023-01-16T10:25:33;1.77;;;0.70;;
20559;SDS011;10438;51.454;6.718;2023-01-16T10:30:53;3.83;;;1.23;;
20559;SDS011;10438;51.454;6.718;2023-01-16T10:33:51;2.20;;;0.60;;
20559;SDS011;10438;51.454;6.718;2023-01-16T10:36:28;5.00;;;0.80;;
20559;SDS011;10438;51.454;6.718;2023-01-16T10:38:58;2.30;;;0.50;;
20559;SDS011;10438;51.454;6.718;2023-01-16T10:41:28;5.27;;;0.60;;
20559;SDS011;10438;51.454;6.718;2023-01-16T10:47:24;2.43;;;0.80;;
20559;SDS011;10438;51.454;6.718;2023-01-16T10:50:13;2.43;;;0.60;;
20559;SDS011;10438;51.454;6.718;2023-01-16T10:52:39;1.87;;;0.60;;
20559;SDS011;10438;51.454;6.718;2023-01-16T10:55:06;1.97;;;0.50;;
20559;SDS011;10438;51.454;6.718;2023-01-16T10:57:33;3.10;;;0.67;;
20559;SDS011;10438;51.454;6.718;2023-01-16T11:00:04;1.83;;;0.67;;
20559;SDS011;10438;51.454;6.718;2023-01-16T11:02:34;2.77;;;0.57;;
20559;SDS011;10438;51.454;6.718;2023-01-16T11:10:31;2.13;;;0.63;;
20559;SDS011;10438;51.454;6.718;2023-01-16T11:12:57;2.53;;;0.70;;
20559;SDS011;10438;51.454;6.718;2023-01-16T11:15:42;2.40;;;0.60;;
20559;SDS011;10438;51.454;6.718;2023-01-16T11:18:51;1.10;;;0.40;;
20559;SDS011;10438;51.454;6.718;2023-01-16T11:21:22;1.37;;;0.50;;
20559;SDS011;10438;51.454;6.718;2023-01-16T11:23:59;4.33;;;0.60;;
20559;SDS011;10438;51.454;6.718;2023-01-16T11:26:28;1.93;;;0.53;;
20559;SDS011;10438;51.454;6.718;2023-01-16T11:28:56;1.60;;;0.40;;
20559;SDS011;10438;51.454;6.718;2023-01-16T11:31:22;2.03;;;0.50;;
20559;SDS011;10438;51.454;6.718;2023-01-16T11:33:52;0.77;;;0.40;;
20559;SDS011;10438;51.454;6.718;2023-01-16T11:36:25;1.97;;;0.50;;
20559;SDS011;10438;51.454;6.718;2023-01-16T11:38:52;1.10;;;0.40;;
20559;SDS011;10438;51.454;6.718;2023-01-16T11:41:19;1.27;;;0.57;;
20559;SDS011;10438;51.454;6.718;2023-01-16T11:47:02;2.27;;;0.70;;
20559;SDS011;10438;51.454;6.718;2023-01-16T11:49:36;2.27;;;0.77;;
20559;SDS011;10438;51.454;6.718;2023-01-16T11:52:16;0.80;;;0.33;;
20559;SDS011;10438;51.454;6.718;2023-01-16T11:54:58;2.97;;;0.53;;
20559;SDS011;10438;51.454;6.718;2023-01-16T12:03:34;5.50;;;0.67;;
20559;SDS011;10438;51.454;6.718;2023-01-16T12:15:41;5.30;;;1.87;;
20559;SDS011;10438;51.454;6.718;2023-01-16T12:26:34;5.07;;;1.67;;
20559;SDS011;10438;51.454;6.718;2023-01-16T12:32:17;11.20;;;1.40;;
20559;SDS011;10438;51.454;6.718;2023-01-16T12:43:53;1.73;;;0.60;;
20559;SDS011;10438;51.454;6.718;2023-01-16T12:46:35;7.23;;;2.20;;
20559;SDS011;10438;51.454;6.718;2023-01-16T12:49:18;11.00;;;3.53;;
20559;SDS011;10438;51.454;6.718;2023-01-16T12:52:07;8.97;;;2.00;;
20559;SDS011;10438;51.454;6.718;2023-01-16T12:54:52;10.70;;;2.20;;
20559;SDS011;10438;51.454;6.718;2023-01-16T12:57:37;7.73;;;2.23;;
20559;SDS011;10438;51.454;6.718;2023-01-16T13:00:15;16.47;;;4.20;;
20559;SDS011;10438;51.454;6.718;2023-01-16T13:02:48;14.83;;;4.37;;
20559;SDS011;10438;51.454;6.718;2023-01-16T13:05:24;14.33;;;3.40;;
20559;SDS011;10438;51.454;6.718;2023-01-16T13:07:55;16.93;;;3.90;;
20559;SDS011;10438;51.454;6.718;2023-01-16T13:10:29;10.63;;;3.20;;
20559;SDS011;10438;51.454;6.718;2023-01-16T13:13:18;7.90;;;2.73;;
20559;SDS011;10438;51.454;6.718;2023-01-16T13:19:09;20.93;;;4.83;;
20559;SDS011;10438;51.454;6.718;2023-01-16T13:21:38;14.30;;;3.37;;
20559;SDS011;10438;51.454;6.718;2023-01-16T13:24:30;13.90;;;3.40;;
20559;SDS011;10438;51.454;6.718;2023-01-16T13:27:00;6.70;;;1.97;;
20559;SDS011;10438;51.454;6.718;2023-01-16T13:29:39;6.20;;;1.60;;
20559;SDS011;10438;51.454;6.718;2023-01-16T13:32:29;4.53;;;1.40;;
20559;SDS011;10438;51.454;6.718;2023-01-16T13:37:45;6.37;;;1.87;;
20559;SDS011;10438;51.454;6.718;2023-01-16T13:40:42;7.43;;;1.20;;
20559;SDS011;10438;51.454;6.718;2023-01-16T13:43:32;4.37;;;1.03;;
20559;SDS011;10438;51.454;6.718;2023-01-16T13:46:21;9.77;;;2.00;;
20559;SDS011;10438;51.454;6.718;2023-01-16T13:48:51;5.80;;;1.50;;
20559;SDS011;10438;51.454;6.718;2023-01-16T13:51:18;7.30;;;1.70;;
20559;SDS011;10438;51.454;6.718;2023-01-16T13:53:56;7.33;;;2.20;;
20559;SDS011;10438;51.454;6.718;2023-01-16T13:56:24;5.43;;;1.70;;
20559;SDS011;10438;51.454;6.718;2023-01-16T14:01:54;2.57;;;0.80;;
20559;SDS011;10438;51.454;6.718;2023-01-16T14:06:52;7.43;;;2.10;;
20559;SDS011;10438;51.454;6.718;2023-01-16T14:12:33;7.30;;;2.17;;
20559;SDS011;10438;51.454;6.718;2023-01-16T14:15:20;6.73;;;2.00;;
20559;SDS011;10438;51.454;6.718;2023-01-16T14:18:19;5.97;;;1.10;;
20559;SDS011;10438;51.454;6.718;2023-01-16T14:23:18;3.47;;;1.23;;
20559;SDS011;10438;51.454;6.718;2023-01-16T14:26:03;5.70;;;1.50;;
20559;SDS011;10438;51.454;6.718;2023-01-16T14:28:30;6.03;;;1.73;;
20559;SDS011;10438;51.454;6.718;2023-01-16T14:30:57;3.50;;;0.97;;
20559;SDS011;10438;51.454;6.718;2023-01-16T14:33:24;2.60;;;0.80;;
20559;SDS011;10438;51.454;6.718;2023-01-16T14:35:51;3.87;;;1.10;;
20559;SDS011;10438;51.454;6.718;2023-01-16T14:38:20;2.37;;;0.70;;
20559;SDS011;10438;51.454;6.718;2023-01-16T14:40:55;3.77;;;0.80;;
20559;SDS011;10438;51.454;6.718;2023-01-16T14:43:42;3.63;;;1.23;;
20559;SDS011;10438;51.454;6.718;2023-01-16T14:47:04;2.00;;;0.77;;
20559;SDS011;10438;51.454;6.718;2023-01-16T14:49:58;3.30;;;0.90;;
20559;SDS011;10438;51.454;6.718;2023-01-16T14:55:56;2.73;;;0.70;;
20559;SDS011;10438;51.454;6.718;2023-01-16T14:58:30;2.03;;;0.73;;
20559;SDS011;10438;51.454;6.718;2023-01-16T15:01:26;1.10;;;0.50;;
20559;SDS011;10438;51.454;6.718;2023-01-16T15:04:28;4.00;;;0.87;;
20559;SDS011;10438;51.454;6.718;2023-01-16T15:07:02;4.33;;;1.10;;
20559;SDS011;10438;51.454;6.718;2023-01-16T15:09:29;1.73;;;0.63;;
20559;SDS011;10438;51.454;6.718;2023-01-16T15:11:59;1.63;;;0.60;;
20559;SDS011;10438;51.454;6.718;2023-01-16T15:14:27;1.43;;;0.50;;
20559;SDS011;10438;51.454;6.718;2023-01-16T15:16:58;1.90;;;0.60;;
20559;SDS011;10438;51.454;6.718;2023-01-16T15:22:58;2.67;;;0.80;;
20559;SDS011;10438;51.454;6.718;2023-01-16T15:25:29;3.47;;;0.63;;
20559;SDS011;10438;51.454;6.718;2023-01-16T15:28:11;1.90;;;0.50;;
20559;SDS011;10438;51.454;6.718;2023-01-16T15:30:38;3.47;;;0.70;;
20559;SDS011;10438;51.454;6.718;2023-01-16T15:36:31;2.63;;;0.80;;
20559;SDS011;10438;51.454;6.718;2023-01-16T15:41:37;2.10;;;0.60;;
20559;SDS011;10438;51.454;6.718;2023-01-16T15:44:23;4.07;;;0.87;;
20559;SDS011;10438;51.454;6.718;2023-01-16T15:52:39;2.30;;;0.87;;
20559;SDS011;10438;51.454;6.718;2023-01-16T15:55:24;3.83;;;0.90;;
20559;SDS011;10438;51.454;6.718;2023-01-16T15:57:53;2.27;;;0.70;;
20559;SDS011;10438;51.454;6.718;2023-01-16T16:02:59;3.20;;;1.20;;
20559;SDS011;10438;51.454;6.718;2023-01-16T16:05:40;2.67;;;0.80;;
20559;SDS011;10438;51.454;6.718;2023-01-16T16:08:11;3.23;;;0.80;;
20559;SDS011;10438;51.454;6.718;2023-01-16T16:10:40;2.60;;;1.07;;
20559;SDS011;10438;51.454;6.718;2023-01-16T16:13:27;2.37;;;0.80;;
20559;SDS011;10438;51.454;6.718;2023-01-16T16:18:57;2.03;;;1.00;;
20559;SDS011;10438;51.454;6.718;2023-01-16T16:21:28;3.70;;;0.90;;
20559;SDS011;10438;51.454;6.718;2023-01-16T16:24:05;2.50;;;1.00;;
20559;SDS011;10438;51.454;6.718;2023-01-16T16:26:40;3.03;;;1.20;;
20559;SDS011;10438;51.454;6.718;2023-01-16T16:29:17;4.03;;;1.30;;
20559;SDS011;10438;51.454;6.718;2023-01-16T16:31:45;4.30;;;1.60;;
20559;SDS011;10438;51.454;6.718;2023-01-16T16:34:14;2.73;;;1.20;;
20559;SDS011;10438;51.454;6.718;2023-01-16T16:36:45;3.63;;;1.00;;
20559;SDS011;10438;51.454;6.718;2023-01-16T16:41:50;6.23;;;1.70;;
20559;SDS011;10438;51.454;6.718;2023-01-16T16:44:38;3.40;;;1.40;;
20559;SDS011;10438;51.454;6.718;2023-01-16T16:47:21;5.13;;;1.60;;
20559;SDS011;10438;51.454;6.718;2023-01-16T16:49:52;4.07;;;1.57;;
20559;SDS011;10438;51.454;6.718;2023-01-16T16:52:28;4.13;;;1.60;;
20559;SDS011;10438;51.454;6.718;2023-01-16T16:55:28;5.80;;;1.50;;
20559;SDS011;10438;51.454;6.718;2023-01-16T16:57:57;4.93;;;1.83;;
20559;SDS011;10438;51.454;6.718;2023-01-16T17:00:26;6.47;;;1.87;;
20559;SDS011;10438;51.454;6.718;2023-01-16T17:02:54;3.97;;;1.80;;
20559;SDS011;10438;51.454;6.718;2023-01-16T17:05:25;5.83;;;1.73;;
20559;SDS011;10438;51.454;6.718;2023-01-16T17:07:52;4.40;;;1.73;;
20559;SDS011;10438;51.454;6.718;2023-01-16T17:10:17;4.30;;;1.83;;
20559;SDS011;10438;51.454;6.718;2023-01-16T17:12:43;3.20;;;1.70;;
20559;SDS011;10438;51.454;6.718;2023-01-16T17:15:09;4.33;;;1.87;;
20559;SDS011;10438;51.454;6.718;2023-01-16T17:17:38;4.40;;;1.90;;
20559;SDS011;10438;51.454;6.718;2023-01-16T17:20:27;7.23;;;3.07;;
20559;SDS011;10438;51.454;6.718;2023-01-16T17:22:53;9.30;;;3.53;;
20559;SDS011;10438;51.454;6.718;2023-01-16T17:25:19;6.00;;;4.10;;
20559;SDS011;10438;51.454;6.718;2023-01-16T17:27:46;7.03;;;4.10;;
20559;SDS011;10438;51.454;6.718;2023-01-16T17:30:13;6.50;;;2.93;;
20559;SDS011;10438;51.454;6.718;2023-01-16T17:32:39;6.77;;;3.20;;
20559;SDS011;10438;51.454;6.718;2023-01-16T17:35:11;6.20;;;3.57;;